sensor_id;sensor_type;location;lat;lon;timestamp;temperature;humidity
3298;DHT22;1661;53.572;10.174;2023-04-25T00:00:36;9.30;88.60
3298;DHT22;1661;53.572;10.174;2023-04-25T00:03:03;9.30;88.60
3298;DHT22;1661;53.572;10.174;2023-04-25T00:05:30;9.20;88.70
3298;DHT22;1661;53.572;10.174;2023-04-25T00:07:57;9.20;89.10
3298;DHT22;1661;53.572;10.174;2023-04-25T00:10:26;9.30;89.40
3298;DHT22;1661;53.572;10.174;2023-04-25T00:12:53;9.40;89.30
3298;DHT22;1661;53.572;10.174;2023-04-25T00:15:19;9.40;89.30
3298;DHT22;1661;53.572;10.174;2023-04-25T00:17:47;9.50;89.30
3298;DHT22;1661;53.572;10.174;2023-04-25T00:20:13;9.50;89.10
3298;DHT22;1661;53.572;10.174;2023-04-25T00:22:40;9.50;89.00
3298;DHT22;1661;53.572;10.174;2023-04-25T00:25:07;9.30;89.70
3298;DHT22;1661;53.572;10.174;2023-04-25T00:27:36;9.20;89.60
3298;DHT22;1661;53.572;10.174;2023-04-25T00:30:05;9.30;90.10
3298;DHT22;1661;53.572;10.174;2023-04-25T00:32:32;9.40;90.10
3298;DHT22;1661;53.572;10.174;2023-04-25T00:34:59;9.30;89.40
3298;DHT22;1661;53.572;10.174;2023-04-25T00:37:26;9.00;90.30
3298;DHT22;1661;53.572;10.174;2023-04-25T00:39:53;8.90;90.00
3298;DHT22;1661;53.572;10.174;2023-04-25T00:42:22;9.00;90.20
3298;DHT22;1661;53.572;10.174;2023-04-25T00:44:51;9.00;90.00
3298;DHT22;1661;53.572;10.174;2023-04-25T00:47:19;9.00;89.50
3298;DHT22;1661;53.572;10.174;2023-04-25T00:49:46;9.10;89.30
3298;DHT22;1661;53.572;10.174;2023-04-25T00:52:15;9.00;88.80
3298;DHT22;1661;53.572;10.174;2023-04-25T00:54:42;9.10;88.60
3298;DHT22;1661;53.572;10.174;2023-04-25T00:57:09;9.00;88.70
3298;DHT22;1661;53.572;10.174;2023-04-25T00:59:37;8.90;88.30
3298;DHT22;1661;53.572;10.174;2023-04-25T01:02:06;8.80;88.10
3298;DHT22;1661;53.572;10.174;2023-04-25T01:04:34;8.80;88.20
3298;DHT22;1661;53.572;10.174;2023-04-25T01:07:01;8.80;87.90
3298;DHT22;1661;53.572;10.174;2023-04-25T01:09:30;8.60;87.30
3298;DHT22;1661;53.572;10.174;2023-04-25T01:11:57;8.70;87.60
3298;DHT22;1661;53.572;10.174;2023-04-25T01:14:24;8.70;87.10
3298;DHT22;1661;53.572;10.174;2023-04-25T01:16:51;8.60;86.80
3298;DHT22;1661;53.572;10.174;2023-04-25T01:19:20;8.60;87.10
3298;DHT22;1661;53.572;10.174;2023-04-25T01:21:51;8.60;86.80
3298;DHT22;1661;53.572;10.174;2023-04-25T01:24:18;8.60;86.80
3298;DHT22;1661;53.572;10.174;2023-04-25T01:26:45;8.50;86.50
3298;DHT22;1661;53.572;10.174;2023-04-25T01:29:15;8.50;86.20
3298;DHT22;1661;53.572;10.174;2023-04-25T01:31:43;8.40;85.80
3298;DHT22;1661;53.572;10.174;2023-04-25T01:34:15;8.50;85.60
3298;DHT22;1661;53.572;10.174;2023-04-25T01:36:42;8.40;85.50
3298;DHT22;1661;53.572;10.174;2023-04-25T01:39:13;8.30;85.00
3298;DHT22;1661;53.572;10.174;2023-04-25T01:41:43;8.30;84.70
3298;DHT22;1661;53.572;10.174;2023-04-25T01:44:10;8.30;84.80
3298;DHT22;1661;53.572;10.174;2023-04-25T01:46:36;8.30;85.10
3298;DHT22;1661;53.572;10.174;2023-04-25T01:49:03;8.20;85.10
3298;DHT22;1661;53.572;10.174;2023-04-25T01:51:31;8.10;85.20
3298;DHT22;1661;53.572;10.174;2023-04-25T01:53:59;8.20;85.10
3298;DHT22;1661;53.572;10.174;2023-04-25T01:56:31;8.20;84.70
3298;DHT22;1661;53.572;10.174;2023-04-25T01:58:58;8.10;83.60
3298;DHT22;1661;53.572;10.174;2023-04-25T02:01:25;8.10;84.50
3298;DHT22;1661;53.572;10.174;2023-04-25T02:03:52;8.10;83.90
3298;DHT22;1661;53.572;10.174;2023-04-25T02:06:18;8.10;82.90
3298;DHT22;1661;53.572;10.174;2023-04-25T02:08:45;8.00;81.90
3298;DHT22;1661;53.572;10.174;2023-04-25T02:11:12;7.90;81.80
3298;DHT22;1661;53.572;10.174;2023-04-25T02:13:40;7.90;82.30
3298;DHT22;1661;53.572;10.174;2023-04-25T02:16:07;7.90;81.90
3298;DHT22;1661;53.572;10.174;2023-04-25T02:18:34;7.80;81.10
3298;DHT22;1661;53.572;10.174;2023-04-25T02:21:02;7.80;80.80
3298;DHT22;1661;53.572;10.174;2023-04-25T02:23:29;7.90;81.10
3298;DHT22;1661;53.572;10.174;2023-04-25T02:25:56;7.80;80.80
3298;DHT22;1661;53.572;10.174;2023-04-25T02:28:23;7.90;81.10
3298;DHT22;1661;53.572;10.174;2023-04-25T02:30:52;7.90;80.10
3298;DHT22;1661;53.572;10.174;2023-04-25T02:33:19;7.70;79.10
3298;DHT22;1661;53.572;10.174;2023-04-25T02:35:46;7.80;80.20
3298;DHT22;1661;53.572;10.174;2023-04-25T02:38:13;7.80;79.90
3298;DHT22;1661;53.572;10.174;2023-04-25T02:40:43;7.90;79.90
3298;DHT22;1661;53.572;10.174;2023-04-25T02:43:10;7.80;79.30
3298;DHT22;1661;53.572;10.174;2023-04-25T02:45:36;7.70;79.80
3298;DHT22;1661;53.572;10.174;2023-04-25T02:48:05;7.70;80.30
3298;DHT22;1661;53.572;10.174;2023-04-25T02:50:35;7.70;80.20
3298;DHT22;1661;53.572;10.174;2023-04-25T02:53:02;7.90;80.30
3298;DHT22;1661;53.572;10.174;2023-04-25T02:55:28;7.90;80.30
3298;DHT22;1661;53.572;10.174;2023-04-25T02:57:55;7.80;78.90
3298;DHT22;1661;53.572;10.174;2023-04-25T03:00:22;7.90;79.80
3298;DHT22;1661;53.572;10.174;2023-04-25T03:02:49;7.90;79.20
3298;DHT22;1661;53.572;10.174;2023-04-25T03:05:17;7.80;78.80
3298;DHT22;1661;53.572;10.174;2023-04-25T03:07:44;7.80;79.00
3298;DHT22;1661;53.572;10.174;2023-04-25T03:10:17;7.90;79.70
3298;DHT22;1661;53.572;10.174;2023-04-25T03:12:44;7.90;77.70
3298;DHT22;1661;53.572;10.174;2023-04-25T03:15:11;7.70;78.10
3298;DHT22;1661;53.572;10.174;2023-04-25T03:17:41;7.80;78.70
3298;DHT22;1661;53.572;10.174;2023-04-25T03:20:09;7.80;78.80
3298;DHT22;1661;53.572;10.174;2023-04-25T03:22:37;7.80;78.00
3298;DHT22;1661;53.572;10.174;2023-04-25T03:25:07;7.70;77.40
3298;DHT22;1661;53.572;10.174;2023-04-25T03:27:34;7.70;77.00
3298;DHT22;1661;53.572;10.174;2023-04-25T03:30:00;7.70;77.80
3298;DHT22;1661;53.572;10.174;2023-04-25T03:32:28;7.70;76.80
3298;DHT22;1661;53.572;10.174;2023-04-25T03:34:54;7.70;76.70
3298;DHT22;1661;53.572;10.174;2023-04-25T03:37:24;7.70;76.70
3298;DHT22;1661;53.572;10.174;2023-04-25T03:39:54;7.70;76.60
3298;DHT22;1661;53.572;10.174;2023-04-25T03:42:21;7.80;75.70
3298;DHT22;1661;53.572;10.174;2023-04-25T03:44:48;7.80;75.80
3298;DHT22;1661;53.572;10.174;2023-04-25T03:47:15;7.90;75.40
3298;DHT22;1661;53.572;10.174;2023-04-25T03:49:42;7.90;75.30
3298;DHT22;1661;53.572;10.174;2023-04-25T03:52:10;7.90;74.80
3298;DHT22;1661;53.572;10.174;2023-04-25T03:54:39;7.90;74.60
3298;DHT22;1661;53.572;10.174;2023-04-25T03:57:07;7.80;74.10
3298;DHT22;1661;53.572;10.174;2023-04-25T03:59:34;7.80;74.50
3298;DHT22;1661;53.572;10.174;2023-04-25T04:02:00;7.80;74.70
3298;DHT22;1661;53.572;10.174;2023-04-25T04:04:27;7.60;73.10
3298;DHT22;1661;53.572;10.174;2023-04-25T04:06:54;7.60;73.50
3298;DHT22;1661;53.572;10.174;2023-04-25T04:09:21;7.50;73.40
3298;DHT22;1661;53.572;10.174;2023-04-25T04:11:51;7.50;73.50
3298;DHT22;1661;53.572;10.174;2023-04-25T04:14:19;7.60;73.40
3298;DHT22;1661;53.572;10.174;2023-04-25T04:16:48;7.60;73.80
3298;DHT22;1661;53.572;10.174;2023-04-25T04:19:15;7.60;74.10
3298;DHT22;1661;53.572;10.174;2023-04-25T04:21:41;7.70;73.90
3298;DHT22;1661;53.572;10.174;2023-04-25T04:24:08;7.70;73.30
3298;DHT22;1661;53.572;10.174;2023-04-25T04:26:35;7.70;72.50
3298;DHT22;1661;53.572;10.174;2023-04-25T04:29:04;7.70;72.50
3298;DHT22;1661;53.572;10.174;2023-04-25T04:31:32;7.80;73.30
3298;DHT22;1661;53.572;10.174;2023-04-25T04:33:59;7.70;72.20
3298;DHT22;1661;53.572;10.174;2023-04-25T04:36:27;7.70;71.60
3298;DHT22;1661;53.572;10.174;2023-04-25T04:38:53;7.70;71.70
3298;DHT22;1661;53.572;10.174;2023-04-25T04:41:22;7.60;71.40
3298;DHT22;1661;53.572;10.174;2023-04-25T04:43:49;7.50;70.80
3298;DHT22;1661;53.572;10.174;2023-04-25T04:46:16;7.40;70.80
3298;DHT22;1661;53.572;10.174;2023-04-25T04:48:45;7.40;71.40
3298;DHT22;1661;53.572;10.174;2023-04-25T04:51:11;7.40;71.60
3298;DHT22;1661;53.572;10.174;2023-04-25T04:53:38;7.40;71.50
3298;DHT22;1661;53.572;10.174;2023-04-25T04:56:05;7.40;71.60
3298;DHT22;1661;53.572;10.174;2023-04-25T04:58:32;7.50;71.40
3298;DHT22;1661;53.572;10.174;2023-04-25T05:01:00;7.50;71.30
3298;DHT22;1661;53.572;10.174;2023-04-25T05:03:27;7.70;71.50
3298;DHT22;1661;53.572;10.174;2023-04-25T05:05:55;7.70;71.60
3298;DHT22;1661;53.572;10.174;2023-04-25T05:08:22;7.80;70.40
3298;DHT22;1661;53.572;10.174;2023-04-25T05:10:49;7.80;70.40
3298;DHT22;1661;53.572;10.174;2023-04-25T05:13:15;7.70;69.30
3298;DHT22;1661;53.572;10.174;2023-04-25T05:15:42;7.60;69.00
3298;DHT22;1661;53.572;10.174;2023-04-25T05:18:09;7.50;68.00
3298;DHT22;1661;53.572;10.174;2023-04-25T05:20:36;7.30;69.20
3298;DHT22;1661;53.572;10.174;2023-04-25T05:23:05;7.40;69.80
3298;DHT22;1661;53.572;10.174;2023-04-25T05:25:32;7.40;68.50
3298;DHT22;1661;53.572;10.174;2023-04-25T05:27:59;7.20;68.70
3298;DHT22;1661;53.572;10.174;2023-04-25T05:30:26;7.20;69.50
3298;DHT22;1661;53.572;10.174;2023-04-25T05:32:53;7.20;71.80
3298;DHT22;1661;53.572;10.174;2023-04-25T05:35:20;7.20;72.10
3298;DHT22;1661;53.572;10.174;2023-04-25T05:37:46;7.10;71.90
3298;DHT22;1661;53.572;10.174;2023-04-25T05:40:14;7.10;73.20
3298;DHT22;1661;53.572;10.174;2023-04-25T05:42:44;7.10;73.90
3298;DHT22;1661;53.572;10.174;2023-04-25T05:45:10;7.20;74.30
3298;DHT22;1661;53.572;10.174;2023-04-25T05:47:43;7.20;74.50
3298;DHT22;1661;53.572;10.174;2023-04-25T05:50:10;7.20;75.00
3298;DHT22;1661;53.572;10.174;2023-04-25T05:52:37;7.20;74.40
3298;DHT22;1661;53.572;10.174;2023-04-25T05:55:04;7.30;75.00
3298;DHT22;1661;53.572;10.174;2023-04-25T05:57:35;7.30;74.40
3298;DHT22;1661;53.572;10.174;2023-04-25T06:00:02;7.40;74.70
3298;DHT22;1661;53.572;10.174;2023-04-25T06:02:37;7.50;74.80
3298;DHT22;1661;53.572;10.174;2023-04-25T06:05:04;7.70;74.30
3298;DHT22;1661;53.572;10.174;2023-04-25T06:07:31;7.70;73.80
3298;DHT22;1661;53.572;10.174;2023-04-25T06:09:58;7.70;73.50
3298;DHT22;1661;53.572;10.174;2023-04-25T06:12:25;7.80;73.30
3298;DHT22;1661;53.572;10.174;2023-04-25T06:14:53;7.70;72.80
3298;DHT22;1661;53.572;10.174;2023-04-25T06:17:20;7.80;73.00
3298;DHT22;1661;53.572;10.174;2023-04-25T06:19:47;7.80;72.40
3298;DHT22;1661;53.572;10.174;2023-04-25T06:22:14;7.90;71.80
3298;DHT22;1661;53.572;10.174;2023-04-25T06:24:40;7.90;72.10
3298;DHT22;1661;53.572;10.174;2023-04-25T06:27:07;7.90;72.10
3298;DHT22;1661;53.572;10.174;2023-04-25T06:29:34;8.10;72.20
3298;DHT22;1661;53.572;10.174;2023-04-25T06:32:03;8.20;71.20
3298;DHT22;1661;53.572;10.174;2023-04-25T06:34:30;8.10;70.60
3298;DHT22;1661;53.572;10.174;2023-04-25T06:36:57;8.20;71.20
3298;DHT22;1661;53.572;10.174;2023-04-25T06:39:23;8.30;71.70
3298;DHT22;1661;53.572;10.174;2023-04-25T06:41:50;8.40;71.40
3298;DHT22;1661;53.572;10.174;2023-04-25T06:44:20;8.20;70.20
3298;DHT22;1661;53.572;10.174;2023-04-25T06:46:48;8.20;71.20
3298;DHT22;1661;53.572;10.174;2023-04-25T06:49:20;8.20;70.30
3298;DHT22;1661;53.572;10.174;2023-04-25T06:51:46;8.20;71.70
3298;DHT22;1661;53.572;10.174;2023-04-25T06:54:15;8.20;71.70
3298;DHT22;1661;53.572;10.174;2023-04-25T06:56:43;8.30;72.70
3298;DHT22;1661;53.572;10.174;2023-04-25T06:59:09;8.20;72.20
3298;DHT22;1661;53.572;10.174;2023-04-25T07:01:36;8.20;72.50
3298;DHT22;1661;53.572;10.174;2023-04-25T07:04:06;8.20;72.80
3298;DHT22;1661;53.572;10.174;2023-04-25T07:06:34;8.30;72.70
3298;DHT22;1661;53.572;10.174;2023-04-25T07:09:03;8.30;72.50
3298;DHT22;1661;53.572;10.174;2023-04-25T07:11:33;8.30;72.50
3298;DHT22;1661;53.572;10.174;2023-04-25T07:14:00;8.40;72.70
3298;DHT22;1661;53.572;10.174;2023-04-25T07:16:27;8.30;72.10
3298;DHT22;1661;53.572;10.174;2023-04-25T07:18:54;8.20;71.10
3298;DHT22;1661;53.572;10.174;2023-04-25T07:21:21;8.20;71.70
3298;DHT22;1661;53.572;10.174;2023-04-25T07:23:49;8.30;72.00
3298;DHT22;1661;53.572;10.174;2023-04-25T07:26:15;8.40;71.80
3298;DHT22;1661;53.572;10.174;2023-04-25T07:28:45;8.50;72.00
3298;DHT22;1661;53.572;10.174;2023-04-25T07:31:15;8.60;70.80
3298;DHT22;1661;53.572;10.174;2023-04-25T07:33:43;8.50;70.10
3298;DHT22;1661;53.572;10.174;2023-04-25T07:36:10;8.50;71.70
3298;DHT22;1661;53.572;10.174;2023-04-25T07:38:37;8.30;73.80
3298;DHT22;1661;53.572;10.174;2023-04-25T07:41:08;8.30;76.20
3298;DHT22;1661;53.572;10.174;2023-04-25T07:43:35;8.20;77.30
3298;DHT22;1661;53.572;10.174;2023-04-25T07:46:01;8.10;78.10
3298;DHT22;1661;53.572;10.174;2023-04-25T07:48:29;8.10;78.50
3298;DHT22;1661;53.572;10.174;2023-04-25T07:50:56;8.00;78.00
3298;DHT22;1661;53.572;10.174;2023-04-25T07:53:22;8.10;79.00
3298;DHT22;1661;53.572;10.174;2023-04-25T07:55:50;8.00;78.30
3298;DHT22;1661;53.572;10.174;2023-04-25T07:58:19;8.00;77.90
3298;DHT22;1661;53.572;10.174;2023-04-25T08:00:47;8.00;77.40
3298;DHT22;1661;53.572;10.174;2023-04-25T08:03:15;8.00;77.00
3298;DHT22;1661;53.572;10.174;2023-04-25T08:05:42;8.20;77.70
3298;DHT22;1661;53.572;10.174;2023-04-25T08:08:09;8.30;76.10
3298;DHT22;1661;53.572;10.174;2023-04-25T08:10:35;8.40;76.00
3298;DHT22;1661;53.572;10.174;2023-04-25T08:13:05;8.60;76.70
3298;DHT22;1661;53.572;10.174;2023-04-25T08:15:33;8.70;74.70
3298;DHT22;1661;53.572;10.174;2023-04-25T08:18:00;8.90;74.10
3298;DHT22;1661;53.572;10.174;2023-04-25T08:20:27;9.10;73.90
3298;DHT22;1661;53.572;10.174;2023-04-25T08:22:56;9.20;72.10
3298;DHT22;1661;53.572;10.174;2023-04-25T08:25:25;9.30;72.10
3298;DHT22;1661;53.572;10.174;2023-04-25T08:27:52;9.40;71.50
3298;DHT22;1661;53.572;10.174;2023-04-25T08:30:19;9.40;71.50
3298;DHT22;1661;53.572;10.174;2023-04-25T08:32:47;9.40;70.80
3298;DHT22;1661;53.572;10.174;2023-04-25T08:35:14;9.30;71.20
3298;DHT22;1661;53.572;10.174;2023-04-25T08:37:42;8.80;72.80
3298;DHT22;1661;53.572;10.174;2023-04-25T08:40:11;8.40;75.50
3298;DHT22;1661;53.572;10.174;2023-04-25T08:42:41;8.00;77.30
3298;DHT22;1661;53.572;10.174;2023-04-25T08:45:08;7.90;78.30
3298;DHT22;1661;53.572;10.174;2023-04-25T08:47:39;8.00;79.50
3298;DHT22;1661;53.572;10.174;2023-04-25T08:50:08;8.10;80.40
3298;DHT22;1661;53.572;10.174;2023-04-25T08:52:37;8.40;80.50
3298;DHT22;1661;53.572;10.174;2023-04-25T08:55:12;8.50;79.60
3298;DHT22;1661;53.572;10.174;2023-04-25T08:57:40;8.70;78.20
3298;DHT22;1661;53.572;10.174;2023-04-25T09:00:12;8.80;77.70
3298;DHT22;1661;53.572;10.174;2023-04-25T09:02:39;8.90;77.70
3298;DHT22;1661;53.572;10.174;2023-04-25T09:05:09;8.40;78.00
3298;DHT22;1661;53.572;10.174;2023-04-25T09:07:36;8.30;79.30
3298;DHT22;1661;53.572;10.174;2023-04-25T09:10:03;8.30;79.10
3298;DHT22;1661;53.572;10.174;2023-04-25T09:12:33;8.30;79.80
3298;DHT22;1661;53.572;10.174;2023-04-25T09:15:03;8.50;80.30
3298;DHT22;1661;53.572;10.174;2023-04-25T09:17:30;8.50;78.80
3298;DHT22;1661;53.572;10.174;2023-04-25T09:20:06;8.70;77.90
3298;DHT22;1661;53.572;10.174;2023-04-25T09:22:34;9.00;77.70
3298;DHT22;1661;53.572;10.174;2023-04-25T09:25:02;9.10;75.20
3298;DHT22;1661;53.572;10.174;2023-04-25T09:27:29;9.10;73.40
3298;DHT22;1661;53.572;10.174;2023-04-25T09:29:57;9.00;72.10
3298;DHT22;1661;53.572;10.174;2023-04-25T09:32:25;9.00;72.20
3298;DHT22;1661;53.572;10.174;2023-04-25T09:34:54;9.00;71.40
3298;DHT22;1661;53.572;10.174;2023-04-25T09:37:22;9.00;72.50
3298;DHT22;1661;53.572;10.174;2023-04-25T09:39:53;9.10;71.00
3298;DHT22;1661;53.572;10.174;2023-04-25T09:42:22;9.20;70.10
3298;DHT22;1661;53.572;10.174;2023-04-25T09:44:52;9.30;69.60
3298;DHT22;1661;53.572;10.174;2023-04-25T09:47:19;9.50;71.00
3298;DHT22;1661;53.572;10.174;2023-04-25T09:49:47;9.70;69.80
3298;DHT22;1661;53.572;10.174;2023-04-25T09:52:15;9.70;66.70
3298;DHT22;1661;53.572;10.174;2023-04-25T09:54:42;9.60;67.10
3298;DHT22;1661;53.572;10.174;2023-04-25T09:57:13;9.50;68.50
3298;DHT22;1661;53.572;10.174;2023-04-25T09:59:43;9.20;72.40
3298;DHT22;1661;53.572;10.174;2023-04-25T10:02:11;9.00;74.30
3298;DHT22;1661;53.572;10.174;2023-04-25T10:04:38;8.60;74.50
3298;DHT22;1661;53.572;10.174;2023-04-25T10:07:06;8.70;76.50
3298;DHT22;1661;53.572;10.174;2023-04-25T10:09:33;8.50;76.40
3298;DHT22;1661;53.572;10.174;2023-04-25T10:12:03;8.60;78.20
3298;DHT22;1661;53.572;10.174;2023-04-25T10:14:31;8.70;79.30
3298;DHT22;1661;53.572;10.174;2023-04-25T10:16:58;8.90;79.10
3298;DHT22;1661;53.572;10.174;2023-04-25T10:19:25;9.10;78.60
3298;DHT22;1661;53.572;10.174;2023-04-25T10:21:55;9.40;77.80
3298;DHT22;1661;53.572;10.174;2023-04-25T10:24:23;9.70;75.70
3298;DHT22;1661;53.572;10.174;2023-04-25T10:26:51;10.00;75.60
3298;DHT22;1661;53.572;10.174;2023-04-25T10:29:25;10.20;73.20
3298;DHT22;1661;53.572;10.174;2023-04-25T10:31:53;10.20;69.90
3298;DHT22;1661;53.572;10.174;2023-04-25T10:34:24;10.30;68.50
3298;DHT22;1661;53.572;10.174;2023-04-25T10:36:52;10.50;69.00
3298;DHT22;1661;53.572;10.174;2023-04-25T10:39:23;10.80;70.50
3298;DHT22;1661;53.572;10.174;2023-04-25T10:41:55;10.70;63.50
3298;DHT22;1661;53.572;10.174;2023-04-25T10:44:22;10.70;64.00
3298;DHT22;1661;53.572;10.174;2023-04-25T10:46:49;10.80;66.70
3298;DHT22;1661;53.572;10.174;2023-04-25T10:49:31;11.10;64.60
3298;DHT22;1661;53.572;10.174;2023-04-25T10:52:16;11.40;65.20
3298;DHT22;1661;53.572;10.174;2023-04-25T10:54:46;11.60;61.00
3298;DHT22;1661;53.572;10.174;2023-04-25T10:57:30;11.60;61.30
3298;DHT22;1661;53.572;10.174;2023-04-25T11:00:01;11.70;61.80
3298;DHT22;1661;53.572;10.174;2023-04-25T11:02:32;11.80;63.90
3298;DHT22;1661;53.572;10.174;2023-04-25T11:05:04;12.00;61.80
3298;DHT22;1661;53.572;10.174;2023-04-25T11:07:37;12.00;64.10
3298;DHT22;1661;53.572;10.174;2023-04-25T11:10:05;12.10;62.90
3298;DHT22;1661;53.572;10.174;2023-04-25T11:12:33;12.10;59.50
3298;DHT22;1661;53.572;10.174;2023-04-25T11:15:01;12.10;61.40
3298;DHT22;1661;53.572;10.174;2023-04-25T11:17:29;12.00;62.30
3298;DHT22;1661;53.572;10.174;2023-04-25T11:19:56;11.80;60.40
3298;DHT22;1661;53.572;10.174;2023-04-25T11:22:26;11.40;59.00
3298;DHT22;1661;53.572;10.174;2023-04-25T11:24:53;11.50;57.70
3298;DHT22;1661;53.572;10.174;2023-04-25T11:27:21;11.50;60.60
3298;DHT22;1661;53.572;10.174;2023-04-25T11:29:50;11.50;60.80
3298;DHT22;1661;53.572;10.174;2023-04-25T11:32:17;11.30;62.60
3298;DHT22;1661;53.572;10.174;2023-04-25T11:34:44;10.80;63.30
3298;DHT22;1661;53.572;10.174;2023-04-25T11:37:11;10.70;65.60
3298;DHT22;1661;53.572;10.174;2023-04-25T11:39:42;10.60;67.80
3298;DHT22;1661;53.572;10.174;2023-04-25T11:42:10;10.40;63.30
3298;DHT22;1661;53.572;10.174;2023-04-25T11:44:38;10.40;66.10
3298;DHT22;1661;53.572;10.174;2023-04-25T11:47:05;10.20;63.90
3298;DHT22;1661;53.572;10.174;2023-04-25T11:49:32;10.20;65.40
3298;DHT22;1661;53.572;10.174;2023-04-25T11:52:00;10.30;65.20
3298;DHT22;1661;53.572;10.174;2023-04-25T11:54:27;10.00;64.50
3298;DHT22;1661;53.572;10.174;2023-04-25T11:56:55;10.00;65.50
3298;DHT22;1661;53.572;10.174;2023-04-25T11:59:24;10.00;64.70
3298;DHT22;1661;53.572;10.174;2023-04-25T12:01:52;10.20;67.00
3298;DHT22;1661;53.572;10.174;2023-04-25T12:04:20;10.50;66.80
3298;DHT22;1661;53.572;10.174;2023-04-25T12:06:48;10.80;64.30
3298;DHT22;1661;53.572;10.174;2023-04-25T12:09:17;11.00;63.40
3298;DHT22;1661;53.572;10.174;2023-04-25T12:11:45;11.30;63.20
3298;DHT22;1661;53.572;10.174;2023-04-25T12:14:21;11.40;61.20
3298;DHT22;1661;53.572;10.174;2023-04-25T12:16:50;11.60;62.50
3298;DHT22;1661;53.572;10.174;2023-04-25T12:19:19;11.80;61.50
3298;DHT22;1661;53.572;10.174;2023-04-25T12:21:47;12.00;61.10
3298;DHT22;1661;53.572;10.174;2023-04-25T12:24:15;12.20;58.40
3298;DHT22;1661;53.572;10.174;2023-04-25T12:26:51;12.40;58.10
3298;DHT22;1661;53.572;10.174;2023-04-25T12:29:20;12.40;60.50
3298;DHT22;1661;53.572;10.174;2023-04-25T12:31:48;12.50;54.40
3298;DHT22;1661;53.572;10.174;2023-04-25T12:34:15;12.70;53.40
3298;DHT22;1661;53.572;10.174;2023-04-25T12:36:42;12.70;54.60
3298;DHT22;1661;53.572;10.174;2023-04-25T12:39:14;12.60;54.40
3298;DHT22;1661;53.572;10.174;2023-04-25T12:41:41;12.80;57.80
3298;DHT22;1661;53.572;10.174;2023-04-25T12:44:08;12.70;53.10
3298;DHT22;1661;53.572;10.174;2023-04-25T12:46:36;12.90;51.40
3298;DHT22;1661;53.572;10.174;2023-04-25T12:49:03;13.20;50.60
3298;DHT22;1661;53.572;10.174;2023-04-25T12:51:30;13.30;52.90
3298;DHT22;1661;53.572;10.174;2023-04-25T12:53:58;13.30;51.90
3298;DHT22;1661;53.572;10.174;2023-04-25T12:56:25;13.40;54.90
3298;DHT22;1661;53.572;10.174;2023-04-25T12:58:52;13.30;51.90
3298;DHT22;1661;53.572;10.174;2023-04-25T13:01:19;13.40;58.10
3298;DHT22;1661;53.572;10.174;2023-04-25T13:03:48;13.30;55.40
3298;DHT22;1661;53.572;10.174;2023-04-25T13:06:15;12.80;52.40
3298;DHT22;1661;53.572;10.174;2023-04-25T13:08:42;12.50;60.40
3298;DHT22;1661;53.572;10.174;2023-04-25T13:11:09;12.40;55.60
3298;DHT22;1661;53.572;10.174;2023-04-25T13:13:37;12.10;57.00
3298;DHT22;1661;53.572;10.174;2023-04-25T13:16:06;11.90;59.90
3298;DHT22;1661;53.572;10.174;2023-04-25T13:18:34;12.10;64.00
3298;DHT22;1661;53.572;10.174;2023-04-25T13:21:02;12.40;59.80
3298;DHT22;1661;53.572;10.174;2023-04-25T13:23:30;12.50;59.10
3298;DHT22;1661;53.572;10.174;2023-04-25T13:25:57;12.90;61.60
3298;DHT22;1661;53.572;10.174;2023-04-25T13:28:24;13.20;57.90
3298;DHT22;1661;53.572;10.174;2023-04-25T13:30:51;13.20;57.20
3298;DHT22;1661;53.572;10.174;2023-04-25T13:33:18;13.10;58.70
3298;DHT22;1661;53.572;10.174;2023-04-25T13:35:46;12.00;56.00
3298;DHT22;1661;53.572;10.174;2023-04-25T13:38:20;11.70;59.40
3298;DHT22;1661;53.572;10.174;2023-04-25T13:40:48;11.60;61.50
3298;DHT22;1661;53.572;10.174;2023-04-25T13:43:18;11.50;62.80
3298;DHT22;1661;53.572;10.174;2023-04-25T13:45:44;11.40;63.00
3298;DHT22;1661;53.572;10.174;2023-04-25T13:48:11;11.50;61.20
3298;DHT22;1661;53.572;10.174;2023-04-25T13:50:38;11.10;64.90
3298;DHT22;1661;53.572;10.174;2023-04-25T13:53:05;11.50;63.70
3298;DHT22;1661;53.572;10.174;2023-04-25T13:55:34;11.70;60.10
3298;DHT22;1661;53.572;10.174;2023-04-25T13:58:01;11.70;59.40
3298;DHT22;1661;53.572;10.174;2023-04-25T14:00:33;11.50;61.30
3298;DHT22;1661;53.572;10.174;2023-04-25T14:03:00;11.10;66.20
3298;DHT22;1661;53.572;10.174;2023-04-25T14:05:30;10.90;66.70
3298;DHT22;1661;53.572;10.174;2023-04-25T14:07:57;10.60;68.60
3298;DHT22;1661;53.572;10.174;2023-04-25T14:10:23;10.40;68.30
3298;DHT22;1661;53.572;10.174;2023-04-25T14:12:53;10.30;66.30
3298;DHT22;1661;53.572;10.174;2023-04-25T14:15:20;10.20;66.20
3298;DHT22;1661;53.572;10.174;2023-04-25T14:17:47;10.20;67.00
3298;DHT22;1661;53.572;10.174;2023-04-25T14:20:14;10.00;65.80
3298;DHT22;1661;53.572;10.174;2023-04-25T14:22:45;9.90;63.60
3298;DHT22;1661;53.572;10.174;2023-04-25T14:25:12;10.00;65.90
3298;DHT22;1661;53.572;10.174;2023-04-25T14:27:39;10.20;66.00
3298;DHT22;1661;53.572;10.174;2023-04-25T14:30:09;10.40;66.50
3298;DHT22;1661;53.572;10.174;2023-04-25T14:32:37;10.50;64.80
3298;DHT22;1661;53.572;10.174;2023-04-25T14:35:05;10.70;65.90
3298;DHT22;1661;53.572;10.174;2023-04-25T14:37:32;11.00;62.70
3298;DHT22;1661;53.572;10.174;2023-04-25T14:39:59;11.20;63.70
3298;DHT22;1661;53.572;10.174;2023-04-25T14:42:26;11.60;64.80
3298;DHT22;1661;53.572;10.174;2023-04-25T14:44:52;11.70;63.60
3298;DHT22;1661;53.572;10.174;2023-04-25T14:47:21;11.80;59.60
3298;DHT22;1661;53.572;10.174;2023-04-25T14:49:47;11.70;60.70
3298;DHT22;1661;53.572;10.174;2023-04-25T14:52:19;11.60;61.40
3298;DHT22;1661;53.572;10.174;2023-04-25T14:54:46;11.60;61.00
3298;DHT22;1661;53.572;10.174;2023-04-25T14:57:13;11.60;61.60
3298;DHT22;1661;53.572;10.174;2023-04-25T14:59:40;11.80;62.80
3298;DHT22;1661;53.572;10.174;2023-04-25T15:02:07;11.80;60.00
3298;DHT22;1661;53.572;10.174;2023-04-25T15:04:35;11.80;57.90
3298;DHT22;1661;53.572;10.174;2023-04-25T15:07:02;11.80;60.30
3298;DHT22;1661;53.572;10.174;2023-04-25T15:09:29;11.90;54.40
3298;DHT22;1661;53.572;10.174;2023-04-25T15:11:56;12.00;55.70
3298;DHT22;1661;53.572;10.174;2023-04-25T15:14:23;11.90;55.10
3298;DHT22;1661;53.572;10.174;2023-04-25T15:16:50;11.90;54.50
3298;DHT22;1661;53.572;10.174;2023-04-25T15:19:17;11.60;57.60
3298;DHT22;1661;53.572;10.174;2023-04-25T15:21:46;11.40;60.90
3298;DHT22;1661;53.572;10.174;2023-04-25T15:24:12;11.10;61.40
3298;DHT22;1661;53.572;10.174;2023-04-25T15:26:40;11.10;62.50
3298;DHT22;1661;53.572;10.174;2023-04-25T15:29:07;11.10;60.30
3298;DHT22;1661;53.572;10.174;2023-04-25T15:31:34;10.90;60.80
3298;DHT22;1661;53.572;10.174;2023-04-25T15:34:01;10.40;62.20
3298;DHT22;1661;53.572;10.174;2023-04-25T15:36:27;10.50;60.90
3298;DHT22;1661;53.572;10.174;2023-04-25T15:38:56;10.50;62.50
3298;DHT22;1661;53.572;10.174;2023-04-25T15:41:23;10.50;61.30
3298;DHT22;1661;53.572;10.174;2023-04-25T15:43:50;10.70;63.90
3298;DHT22;1661;53.572;10.174;2023-04-25T15:46:18;10.90;60.90
3298;DHT22;1661;53.572;10.174;2023-04-25T15:48:46;10.70;58.80
3298;DHT22;1661;53.572;10.174;2023-04-25T15:51:13;10.80;60.80
3298;DHT22;1661;53.572;10.174;2023-04-25T15:53:40;10.90;61.20
3298;DHT22;1661;53.572;10.174;2023-04-25T15:56:08;11.00;62.10
3298;DHT22;1661;53.572;10.174;2023-04-25T15:58:35;11.10;61.70
3298;DHT22;1661;53.572;10.174;2023-04-25T16:01:03;11.20;60.80